• Join FlightAware (Why Join?)
  • Login
  • US Flag 
11:24AM EDT


 

Airport Tracker/Info


-or-


 

Live Flight TrackerFlight Track Log ✈ AAL1459 ✈ 29-Oct-2013 ✈ KORD - KRNO

Flight Track Log - Related Links

Times and Time Zones

All times are in EDT time to prevent confusion due to time zone crossing. See the AAL1459 flight status page for this flight to view local times or setup timezone preferences in your user account.

Time Position Orientation Groundspeed Altitude Reporting Facility
EDT Latitude Longitude Course Direction KTS MPH feet Rate Location/Type
06:55PM 41.9690 -87.9010 217° Southwest 90 104  Level FlightAware
06:56PM 41.9690 -87.9290 270° West 187 215 900 2,640 Climbing FlightAware
06:56PM 41.9720 -87.9540 279° West 176 203 2,300 2,580 Climbing FlightAware
06:57PM 41.9780 -87.9790 288° West 203 234 2,800 1,320 Climbing FlightAware
06:57PM 41.9870 -88.0160 288° West 238 274 3,400 1,740 Climbing FlightAware
06:57PM 41.9940 -88.0450 288° West 249 287 4,200 2,520 Climbing FlightAware
06:58PM 42.0020 -88.0760 289° West 249 287 5,200 2,580 Climbing FlightAware
06:58PM 42.0090 -88.1040 289° West 252 290 6,000 2,520 Climbing FlightAware
06:58PM 42.0170 -88.1370 288° West 257 296 6,900 2,160 Climbing FlightAware
06:59PM 42.0220 -88.1610 286° West 270 311 7,300 2,220 Climbing FlightAware
06:59PM 42.0300 -88.2010 285° West 276 318 8,400 2,760 Climbing FlightAware
06:59PM 42.0370 -88.2370 285° West 275 316 9,500 2,880 Climbing FlightAware
07:00PM 42.0520 -88.3090 286° West 284 327 11,500 2,040 Climbing FlightAware
07:01PM 42.0810 -88.4300 288° West 344 396 13,100 1,740 Climbing FlightAware
07:01PM 42.0880 -88.4620 286° West 350 403 13,800 2,580 Climbing FlightAware
07:02PM 42.1060 -88.5420 287° West 361 415 15,400 2,700 Climbing FlightAware
07:03PM 42.1280 -88.6530 285° West 367 422 17,800 2,580 Climbing FlightAware
07:04PM 42.1460 -88.7570 283° West 379 436 19,600 2,400 Climbing FlightAware
07:04PM 42.1540 -88.8440 277° West 382 440 21,200 2,400 Climbing FlightAware
07:05PM 42.1570 -88.9020 274° West 385 443 22,100 2,340 Climbing FlightAware
07:06PM 42.1580 -89.0310 271° West 380 437 24,400 2,340 Climbing FlightAware
07:06PM 42.1550 -89.1460 268° West 381 438 26,200 1,800 Climbing FlightAware
07:07PM 42.1520 -89.2670 268° West 391 450 27,400 1,440 Climbing FlightAware
07:08PM 42.1470 -89.4160 267° West 399 459 28,900 1,680 Climbing FlightAware
07:09PM 42.1430 -89.5580 268° West 391 450 30,800 2,100 Climbing FlightAware
07:10PM 42.1410 -89.6240 268° West 372 428 31,900 1,560 Climbing FlightAware
07:11PM 42.1370 -89.7560 268° West 359 413 33,100 1,380 Climbing FlightAware
07:11PM 42.1360 -89.8070 269° West 354 407 33,800 1,680 Climbing FlightAware
07:12PM 42.1310 -89.9330 267° West 343 395 35,400 1,260 Climbing FlightAware
07:13PM 42.1280 -90.0410 268° West 345 397 36,200 840 Climbing FlightAware
07:13PM 42.1250 -90.1110 267° West 347 399 36,600 780 Climbing FlightAware
07:14PM 42.1310 -90.1980 275° West 349 402 37,200 720 Climbing FlightAware
07:15PM 42.1550 -90.2860 290° West 353 406 37,700 480 Climbing FlightAware
07:16PM 42.1830 -90.3800 292° West 355 409 38,000 180 Climbing FlightAware
07:16PM 42.2140 -90.4790 293° West 356 410 38,000  Level FlightAware
07:17PM 42.2400 -90.5650 292° West 356 410 38,000  Level FlightAware
07:18PM 42.2600 -90.6310 292° West 355 409 38,000  Level FlightAware
07:18PM 42.2820 -90.7030 292° West 355 409 38,000  Level FlightAware
07:19PM 42.3050 -90.7800 292° West 353 406 38,000  Level FlightAware
07:19PM 42.3180 -90.8230 292° West 353 406 38,000  Level FlightAware
07:20PM 42.3540 -90.9410 292° West 352 405 38,000  Level FlightAware
07:21PM 42.3730 -91.0040 292° West 352 405 38,000  Level FlightAware
07:22PM 42.4130 -91.1390 292° West 351 404 38,000  Level FlightAware
07:22PM 42.4410 -91.2020 301° West 361 415 38,000  Level FlightAware
07:23PM 42.4580 -91.2310 308° West 361 415 38,000 540 Level FlightAware
07:24PM 42.5180 -91.3310 309° West 355 409 38,700 720 Climbing FlightAware
07:24PM 42.5460 -91.3780 309° West 349 402 39,000 300 Climbing FlightAware
07:25PM 42.5670 -91.4390 295° West 345 397 39,000  Level FlightAware
07:25PM 42.5970 -91.5440 291° West 349 402 39,000  Level FlightAware
07:26PM 42.6210 -91.6280 291° West 349 402 39,000  Level FlightAware
07:27PM 42.6380 -91.6850 292° West 350 403 39,000  Level FlightAware
07:28PM 42.6749 -91.8166 291° West 352 405 39,000  Level FlightAware ADS-B
07:29PM 42.7210 -91.9800 291° West 358 412 39,000  Level FlightAware
07:30PM 42.7480 -92.0750 291° West 359 413 39,000  Level FlightAware
07:31PM 42.7840 -92.2040 291° West 362 417 39,000  Level FlightAware
07:32PM 42.8157 -92.3193 291° West 362 417 39,000  Level FlightAware ADS-B
07:32PM 42.8370 -92.3970 291° West 362 417 39,000  Level FlightAware
07:33PM 42.8660 -92.5000 291° West 363 418 39,000  Level FlightAware
07:34PM 42.8910 -92.5910 291° West 362 417 39,000  Level FlightAware
07:35PM 42.9190 -92.6930 291° West 361 415 39,000  Level FlightAware
07:35PM 42.9460 -92.7940 290° West 360 414 39,000  Level FlightAware
07:36PM 42.9600 -92.8450 291° West 360 414 39,000  Level FlightAware
07:36PM 42.9810 -92.9220 290° West 360 414 39,000  Level FlightAware
07:37PM 43.0150 -93.0480 290° West 360 414 39,000  Level FlightAware
07:38PM 43.0320 -93.1120 290° West 361 415 39,000  Level FlightAware
07:39PM 43.0630 -93.2280 290° West 364 419 39,000  Level FlightAware
07:40PM 43.0940 -93.3430 290° West 366 421 39,000  Level FlightAware
07:40PM 43.1100 -93.4020 290° West 366 421 39,000  Level FlightAware
07:41PM 43.1460 -93.5410 290° West 368 423 39,000  Level FlightAware
07:42PM 43.1760 -93.6530 290° West 369 425 39,000  Level FlightAware
07:43PM 43.1940 -93.7230 289° West 370 426 39,000  Level FlightAware
07:43PM 43.2250 -93.8410 290° West 371 427 39,000  Level FlightAware
07:44PM 43.2380 -93.8920 289° West 371 427 39,000  Level FlightAware
07:45PM 43.2680 -94.0080 290° West 371 427 39,000  Level FlightAware
07:46PM 43.3020 -94.1400 290° West 371 427 39,000  Level FlightAware
07:46PM 43.3210 -94.2120 290° West 371 427 39,000  Level FlightAware
07:47PM 43.3500 -94.3260 289° West 370 426 39,000  Level FlightAware
07:48PM 43.3750 -94.4240 289° West 370 426 39,000  Level FlightAware
07:49PM 43.4090 -94.5580 289° West 371 427 39,000  Level FlightAware
07:49PM 43.4240 -94.6160 290° West 372 428 39,000  Level FlightAware
07:50PM 43.4530 -94.7330 289° West 374 430 39,000  Level FlightAware
07:51PM 43.4770 -94.8310 289° West 375 432 39,000  Level FlightAware
07:52PM 43.5030 -94.9320 290° West 377 434 39,000  Level FlightAware
07:52PM 43.5300 -95.0440 288° West 378 435 39,000  Level FlightAware
07:53PM 43.5549 -95.1433 289° West 380 437 39,000  Level FlightAware ADS-B
07:54PM 43.5813 -95.2501 289° West 379 436 39,000  Level FlightAware ADS-B
07:54PM 43.6000 -95.3250 289° West 377 434 39,000  Level FlightAware
07:55PM 43.6320 -95.4580 288° West 376 433 39,000  Level FlightAware
07:56PM 43.6620 -95.5800 289° West 375 432 39,000  Level FlightAware
07:57PM 43.6770 -95.6420 289° West 374 430 39,000  Level FlightAware
07:58PM 43.7070 -95.7690 288° West 373 429 39,000  Level FlightAware
07:58PM 43.7250 -95.8420 289° West 371 427 39,000  Level FlightAware
07:59PM 43.7560 -95.9750 288° West 372 428 39,000  Level FlightAware
08:00PM 43.7720 -96.0410 289° West 372 428 39,000  Level FlightAware
08:00PM 43.7870 -96.1060 288° West 372 428 39,000  Level FlightAware
08:01PM 43.8150 -96.2250 288° West 373 429 39,000  Level FlightAware
08:02PM 43.8300 -96.2860 289° West 373 429 39,000  Level FlightAware
08:02PM 43.8568 -96.4020 288° West 374 430 39,000  Level FlightAware ADS-B
08:03PM 43.8830 -96.5160 288° West 374 430 39,000  Level FlightAware
08:04PM 43.9158 -96.6571 288° West 374 430 39,000  Level FlightAware ADS-B
08:06PM 43.9533 -96.8204 288° West 372 428 39,000  Level FlightAware ADS-B
08:07PM 43.9890 -96.9760 288° West 373 429 39,000  Level FlightAware
08:07PM 44.0130 -97.0810 288° West 374 430 39,000  Level FlightAware
08:08PM 44.0489 -97.2425 287° West 377 434 39,000  Level FlightAware ADS-B
08:10PM 44.0800 -97.3840 287° West 380 437 39,000  Level FlightAware
08:10PM 44.1080 -97.5080 287° West 384 442 39,000  Level FlightAware
08:11PM 44.1350 -97.6290 287° West 386 444 39,000  Level FlightAware
08:12PM 44.1580 -97.7360 287° West 387 445 39,000  Level FlightAware
08:12PM 44.1690 -97.7870 287° West 387 445 39,000  Level FlightAware
08:13PM 44.1990 -97.9230 287° West 389 448 39,000  Level FlightAware
08:14PM 44.2270 -98.0510 287° West 390 449 39,000  Level FlightAware
08:15PM 44.2560 -98.1890 286° West 392 451 39,000  Level FlightAware
08:16PM 44.2830 -98.3130 287° West 393 452 39,000  Level FlightAware
08:16PM 44.2960 -98.3760 286° West 393 452 39,000  Level FlightAware
08:17PM 44.3260 -98.5130 287° West 395 455 39,000  Level FlightAware
08:18PM 44.3510 -98.6320 286° West 396 456 39,000  Level FlightAware
08:19PM 44.3790 -98.7690 286° West 398 458 39,000  Level FlightAware
08:20PM 44.3990 -98.8670 286° West 400 460 39,000  Level FlightAware
08:21PM 44.4290 -99.0120 286° West 401 461 39,000  Level FlightAware
08:22PM 44.4530 -99.1290 286° West 402 463 39,000  Level FlightAware
08:22PM 44.4800 -99.2610 286° West 403 464 39,000  Level FlightAware
08:23PM 44.4930 -99.3220 287° West 404 465 39,000  Level FlightAware
08:24PM 44.5170 -99.4460 285° West 404 465 39,000  Level FlightAware
08:25PM 44.5420 -99.5760 285° West 404 465 39,000  Level FlightAware
08:25PM 44.5520 -99.6270 285° West 404 465 39,000  Level FlightAware
08:26PM 44.5770 -99.7570 285° West 404 465 39,000  Level FlightAware
08:26PM 44.5820 -99.7850 284° West 404 465 39,000  Level FlightAware
08:27PM 44.6070 -99.9160 285° West 404 465 39,000  Level FlightAware
08:28PM 44.6170 -99.9680 285° West 404 465 39,000  Level FlightAware
08:28PM 44.6270 -100.0200 285° West 404 465 39,000  Level FlightAware
08:29PM 44.6470 -100.1250 285° West 404 465 39,000  Level FlightAware
08:30PM 44.6670 -100.2290 285° West 404 465 39,000  Level FlightAware
08:30PM 44.6820 -100.3090 285° West 404 465 39,000  Level FlightAware
08:31PM 44.7070 -100.4400 285° West 404 465 39,000  Level FlightAware
08:32PM 44.7210 -100.5140 285° West 404 465 39,000  Level FlightAware
08:33PM 44.7460 -100.6460 285° West 404 465 39,000  Level FlightAware
08:34PM 44.8097 -100.9647 285° West 411 473 39,000  Level Denver Center
08:35PM 44.8397 -101.1231 285° West 413 475 39,000  Level Minneapolis Center
08:36PM 44.8781 -101.3172 286° West 422 486 39,000  Level Minneapolis Center
08:37PM 44.9078 -101.4783 285° West 424 488 39,000  Level Minneapolis Center
08:38PM 44.9372 -101.6406 284° West 425 489 39,000  Level Minneapolis Center
08:39PM 44.9672 -101.8033 285° West 427 491 39,000  Level Minneapolis Center
08:40PM 44.9961 -101.9656 284° West 427 491 39,000  Level Minneapolis Center
08:41PM 44.9931 -102.1333 269° West 425 489 39,000  Level Minneapolis Center
08:42PM 44.9819 -102.3347 266° West 428 493 39,000  Level Minneapolis Center
08:43PM 44.9719 -102.5028 265° West 430 495 39,000  Level Minneapolis Center
08:44PM 44.9611 -102.6714 265° West 431 496 39,000  Level Minneapolis Center
08:45PM 44.9497 -102.8411 265° West 433 498 39,000  Level Minneapolis Center
08:46PM 44.9389 -103.0086 265° West 431 496 39,000  Level Minneapolis Center
08:47PM 44.9281 -103.1781 265° West 433 498 39,000  Level Minneapolis Center
08:48PM 44.9136 -103.3814 264° West 434 499 39,000  Level Minneapolis Center
08:49PM 44.9022 -103.5517 265° West 436 502 39,000 -60 Level Minneapolis Center
08:50PM 44.8894 -103.6975 263° West 436 502 38,900  Descending Minneapolis Center
08:51PM 44.8472 -103.8650 250° West 434 499 39,000  Climbing Denver Center
08:52PM 44.8053 -104.0419 252° West 432 497 39,000  Level Denver Center
08:58PM 44.5940 -104.9150 252° West 438 504 39,000  Level FlightAware
08:58PM 44.5700 -105.0100 251° West 439 505 39,000  Level FlightAware
08:59PM 44.5320 -105.1610 251° West 440 506 39,000  Level FlightAware
09:00PM 44.4990 -105.2950 251° West 438 504 39,000  Level FlightAware
09:01PM 44.4640 -105.4330 250° West 439 505 39,000  Level FlightAware
09:02PM 44.4330 -105.5570 251° West 441 507 39,000  Level FlightAware
09:03PM 44.3960 -105.7020 250° West 444 511 39,000  Level FlightAware
09:03PM 44.3810 -105.7600 250° West 444 511 39,000  Level FlightAware
09:03PM 44.3650 -105.8530 256° West 447 514 39,000  Level FlightAware
09:04PM 44.3550 -105.9440 261° West 448 516 39,000  Level FlightAware
09:05PM 44.3380 -106.0990 261° West 449 517 39,000  Level FlightAware
09:06PM 44.3240 -106.2230 261° West 449 517 39,000  Level FlightAware
09:07PM 44.3080 -106.3840 262° West 449 517 39,000  Level FlightAware
09:07PM 44.2930 -106.4930 259° West 446 513 39,000  Level FlightAware
09:08PM 44.2580 -106.6260 250° West 444 511 39,000  Level FlightAware
09:08PM 44.2430 -106.6790 248° West 444 511 39,000  Level FlightAware
09:09PM 44.2170 -106.7730 249° West 446 513 39,000  Level FlightAware
09:10PM 44.1760 -106.9230 249° West 446 513 39,000  Level FlightAware
09:11PM 44.1470 -107.0270 249° West 447 514 39,000  Level FlightAware
09:11PM 44.1080 -107.1660 249° West 448 516 39,000  Level FlightAware
09:12PM 44.0760 -107.2810 249° West 449 517 39,000  Level FlightAware
09:13PM 44.0470 -107.3810 248° West 449 517 39,000  Level FlightAware
09:13PM 44.0260 -107.4570 249° West 450 518 39,000  Level FlightAware
09:14PM 44.0010 -107.5460 249° West 451 519 39,000  Level FlightAware
09:15PM 43.9650 -107.6720 248° West 452 520 39,000  Level FlightAware
09:15PM 43.9250 -107.8120 248° West 455 524 39,000  Level FlightAware
09:16PM 43.8780 -107.9760 248° West 455 524 39,000  Level FlightAware
09:17PM 43.8540 -108.0580 248° West 455 524 39,000  Level FlightAware
09:18PM 43.8130 -108.2000 248° West 457 526 39,000  Level FlightAware
09:18PM 43.8030 -108.2350 248° West 457 526 39,000  Level FlightAware
09:19PM 43.7600 -108.3810 248° West 457 526 39,000  Level FlightAware
09:20PM 43.7160 -108.5300 248° West 457 526 39,000  Level FlightAware
09:20PM 43.6880 -108.6240 248° West 457 526 39,000  Level FlightAware
09:21PM 43.6430 -108.7720 247° West 458 527 39,000  Level FlightAware
09:22PM 43.6260 -108.8270 247° West 458 527 39,000  Level FlightAware
09:23PM 43.5840 -108.9640 247° West 458 527 39,000  Level FlightAware
09:23PM 43.5580 -109.0490 247° West 458 527 39,000  Level FlightAware
09:24PM 43.5240 -109.1610 247° West 458 527 39,000  Level FlightAware
09:25PM 43.4810 -109.2980 247° West 458 527 39,000  Level FlightAware
09:26PM 43.4570 -109.3750 247° West 458 527 39,000  Level FlightAware
09:27PM 43.4150 -109.5120 247° West 458 527 39,000  Level FlightAware
09:28PM 43.3810 -109.6220 247° West 458 527 39,000  Level FlightAware
09:28PM 43.3640 -109.6790 248° West 458 527 39,000  Level FlightAware
09:29PM 43.3210 -109.8180 247° West 458 527 39,000  Level FlightAware
09:30PM 43.2860 -109.9300 247° West 458 527 39,000  Level FlightAware
09:31PM 43.2520 -110.0410 247° West 458 527 39,000  Level FlightAware
09:32PM 43.1225 -110.4628 247° West 457 526 39,000 -180 Level Salt Lake Center
09:38PM 42.7990 -111.4610 247° West 470 541 38,000 -180 Descending FlightAware ADS-B
09:39PM 42.7694 -111.5520 246° West 469 540 38,000  Level FlightAware ADS-B
09:39PM 42.7394 -111.6420 246° West 468 539 38,000  Level FlightAware ADS-B
09:40PM 42.7123 -111.7230 246° West 467 537 38,000  Level FlightAware ADS-B
09:40PM 42.6834 -111.8090 245° Southwest 465 535 38,000  Level FlightAware ADS-B
09:41PM 42.6522 -111.9020 246° West 464 534 38,000  Level FlightAware ADS-B
09:41PM 42.6416 -111.9335 245° Southwest 464 534 38,000  Level FlightAware ADS-B (KBTF)
09:41PM 42.6249 -111.9830 245° Southwest 464 534 38,000  Level FlightAware ADS-B
09:42PM 42.6124 -112.0204 246° West 464 534 38,000  Level FlightAware ADS-B (KBTF)
09:42PM 42.5918 -112.0820 246° West 464 534 38,000  Level FlightAware ADS-B
09:42PM 42.5829 -112.1079 245° Southwest 464 534 38,000  Level FlightAware ADS-B (KBTF)
09:43PM 42.5401 -112.2341 245° Southwest 465 535 38,000  Level FlightAware ADS-B (KBTF)
09:43PM 42.5371 -112.2430 246° West 464 534 38,000  Level FlightAware ADS-B
09:43PM 42.5108 -112.3194 245° Southwest 466 536 38,000  Level FlightAware ADS-B (KBTF)
09:44PM 42.4915 -112.3760 245° Southwest 465 535 38,000  Level FlightAware ADS-B
09:44PM 42.4723 -112.4323 245° Southwest 469 540 38,000  Level FlightAware ADS-B (KBTF)
09:44PM 42.4548 -112.4830 245° Southwest 469 540 38,000  Level FlightAware ADS-B
09:45PM 42.4452 -112.5116 246° West 469 540 38,000  Level FlightAware ADS-B (KBTF)
09:45PM 42.4170 -112.5936 245° Southwest 470 541 38,000  Level FlightAware ADS-B (KBTF)
09:45PM 42.4109 -112.6110 245° Southwest 470 541 38,000  Level FlightAware ADS-B
09:46PM 42.3826 -112.6936 245° Southwest 472 543 38,000  Level FlightAware ADS-B
09:46PM 42.3770 -112.7100 245° Southwest 472 543 38,000  Level FlightAware ADS-B
09:46PM 42.3634 -112.7493 245° Southwest 469 540 38,000  Level FlightAware ADS-B (KBTF)
09:46PM 42.3450 -112.8020 245° Southwest 473 544 38,000  Level FlightAware ADS-B
09:47PM 42.3354 -112.8300 245° Southwest 473 544 38,000  Level FlightAware ADS-B
09:47PM 42.3155 -112.8870 245° Southwest 474 545 38,000  Level FlightAware ADS-B
09:47PM 42.3090 -112.9053 245° Southwest 474 545 38,000  Level FlightAware ADS-B
09:47PM 42.2969 -112.9401 245° Southwest 471 542 38,000  Level FlightAware ADS-B (KBTF)
09:48PM 42.2740 -113.0060 245° Southwest 475 547 38,000  Level FlightAware ADS-B
09:48PM 42.2680 -113.0233 245° Southwest 475 547 38,000  Level FlightAware ADS-B
09:48PM 42.2482 -113.0800 245° Southwest 474 545 38,000  Level FlightAware ADS-B
09:48PM 42.2353 -113.1168 245° Southwest 471 542 38,000  Level FlightAware ADS-B (KBTF)
09:49PM 42.2162 -113.1710 245° Southwest 474 545 38,000  Level FlightAware ADS-B
09:49PM 42.2068 -113.1981 245° Southwest 471 542 38,000  Level FlightAware ADS-B (KBTF)
09:49PM 42.1771 -113.2820 245° Southwest 475 547 38,000  Level FlightAware ADS-B
09:50PM 42.1666 -113.3118 245° Southwest 470 541 38,000  Level FlightAware ADS-B (KBTF)
09:50PM 42.1283 -113.4200 244° Southwest 473 544 38,000  Level FlightAware ADS-B
09:50PM 42.1312 -113.4116 65° Northeast 473 544 38,000  Level FlightAware ADS-B
09:51PM 42.0991 -113.5024 245° Southwest 468 539 38,000  Level FlightAware ADS-B (KBTF)
09:51PM 42.0871 -113.5360 244° Southwest 472 543 38,000  Level FlightAware ADS-B
09:52PM 42.0528 -113.6320 244° Southwest 471 542 38,000  Level FlightAware ADS-B
09:52PM 42.0510 -113.6369 244° Southwest 466 536 38,000  Level FlightAware ADS-B (KBTF)
09:52PM 42.0297 -113.6963 244° Southwest 465 535 38,000  Level FlightAware ADS-B (KBTF)
09:52PM 42.0123 -113.7446 244° Southwest 467 537 38,000  Level FlightAware ADS-B
09:53PM 41.9810 -113.8320 244° Southwest 466 536 38,000  Level FlightAware ADS-B
09:53PM 41.9605 -113.8890 244° Southwest 467 537 38,000  Level FlightAware ADS-B
09:53PM 41.9520 -113.9120 244° Southwest 466 536 38,000  Level FlightAware ADS-B
09:54PM 41.9436 -113.9358 245° Southwest 467 537 38,000  Level FlightAware ADS-B
09:54PM 41.9240 -113.9900 244° Southwest 467 537 38,000  Level FlightAware ADS-B
09:54PM 41.9115 -114.0249 244° Southwest 467 537 38,000  Level FlightAware ADS-B
09:54PM 41.9003 -114.0556 244° Southwest 464 534 38,000  Level FlightAware ADS-B (KBTF)
09:54PM 41.8953 -114.0690 243° Southwest 467 537 38,000  Level FlightAware ADS-B
09:55PM 41.8830 -114.1032 244° Southwest 464 534 38,000  Level FlightAware ADS-B (KBTF)
09:55PM 41.8662 -114.1490 244° Southwest 469 540 38,000  Level FlightAware ADS-B
09:55PM 41.8388 -114.2242 244° Southwest 465 535 38,000  Level FlightAware ADS-B (KBTF)
09:56PM 41.8233 -114.2670 244° Southwest 468 539 38,000  Level FlightAware ADS-B
09:56PM 41.8103 -114.3025 244° Southwest 465 535 38,000  Level FlightAware ADS-B (KBTF)
09:56PM 41.7936 -114.3480 244° Southwest 468 539 38,000  Level FlightAware ADS-B
09:57PM 41.7696 -114.4136 244° Southwest 468 539 38,000  Level FlightAware ADS-B (KBTF)
09:57PM 41.7650 -114.4260 244° Southwest 468 539 38,000  Level FlightAware ADS-B
09:57PM 41.7401 -114.4936 244° Southwest 469 540 38,000  Level FlightAware ADS-B (KBTF)
09:57PM 41.7334 -114.5120 244° Southwest 469 540 38,000  Level FlightAware ADS-B
09:58PM 41.6997 -114.6030 244° Southwest 470 541 38,000  Level FlightAware ADS-B
09:58PM 41.6692 -114.6849 244° Southwest 471 542 38,000  Level FlightAware ADS-B (KBTF)
09:59PM 41.6510 -114.7340 244° Southwest 471 542 38,000  Level FlightAware ADS-B
09:59PM 41.6271 -114.7986 244° Southwest 472 543 38,000  Level FlightAware ADS-B (KBTF)
09:59PM 41.6206 -114.8160 243° Southwest 472 543 38,000  Level FlightAware ADS-B
10:00PM 41.5912 -114.8950 244° Southwest 474 545 38,000  Level FlightAware ADS-B
10:00PM 41.5882 -114.9028 243° Southwest 474 545 38,000  Level FlightAware ADS-B (KBTF)
10:00PM 41.5607 -114.9770 244° Southwest 475 547 38,000  Level FlightAware ADS-B
10:00PM 41.5564 -114.9878 242° Southwest 476 548 38,000  Level FlightAware ADS-B (KBTF)
10:01PM 41.5273 -115.0654 243° Southwest 476 548 38,000  Level FlightAware ADS-B (KBTF)
10:01PM 41.5251 -115.0710 242° Southwest 476 548 38,000  Level FlightAware ADS-B
10:01PM 41.4946 -115.1520 243° Southwest 477 549 38,000  Level FlightAware ADS-B
10:02PM 41.4812 -115.1881 244° Southwest 478 550 38,000  Level FlightAware ADS-B (KBTF)
10:02PM 41.4604 -115.2430 243° Southwest 478 550 38,000  Level FlightAware ADS-B
10:03PM 41.4212 -115.3465 243° Southwest 474 545 38,000  Level FlightAware ADS-B (KBTF)
10:04PM 41.3540 -115.5230 243° Southwest 477 549 38,000  Level FlightAware
10:05PM 41.2890 -115.6920 243° Southwest 478 550 38,000  Level FlightAware
10:06PM 41.2450 -115.8060 243° Southwest 479 551 38,000  Level FlightAware
10:06PM 41.1970 -115.9310 243° Southwest 480 552 38,000  Level FlightAware
10:07PM 41.1430 -116.0720 243° Southwest 480 552 38,000  Level FlightAware
10:08PM 41.1100 -116.1590 243° Southwest 480 552 38,000  Level FlightAware
10:09PM 41.0480 -116.3200 243° Southwest 480 552 38,000  Level FlightAware
10:10PM 41.0070 -116.4270 243° Southwest 480 552 38,000  Level FlightAware
10:11PM 40.9780 -116.5020 243° Southwest 480 552 38,000  Level FlightAware
10:11PM 40.9570 -116.5560 243° Southwest 480 552 38,000  Level FlightAware
10:12PM 40.8990 -116.7070 243° Southwest 480 552 38,000  Level FlightAware
10:13PM 40.8780 -116.7610 243° Southwest 480 552 38,000  Level FlightAware
10:13PM 40.8370 -116.8670 243° Southwest 480 552 38,000  Level FlightAware
10:14PM 40.7960 -116.9740 243° Southwest 480 552 38,000  Level FlightAware
10:15PM 40.7440 -117.1100 243° Southwest 480 552 38,000  Level FlightAware
10:16PM 40.6090 -117.4128 240° Southwest 484 557 38,000  Level FlightAware ADS-B (KAHC)
10:17PM 40.5580 -117.5377 242° Southwest 486 559 38,000  Level FlightAware ADS-B (KAHC)
10:17PM 40.5268 -117.6139 242° Southwest 487 560 38,000  Level FlightAware ADS-B (KAHC)
10:18PM 40.4954 -117.6901 242° Southwest 489 563 38,000  Level FlightAware ADS-B (KAHC)
10:18PM 40.4514 -117.7966 242° Southwest 488 562 38,000  Level FlightAware ADS-B (KAHC)
10:19PM 40.4187 -117.8755 241° Southwest 488 562 38,000  Level FlightAware ADS-B (KAHC)
10:19PM 40.3736 -117.9840 241° Southwest 488 562 38,000 -300 Level FlightAware ADS-B (KAHC)
10:20PM 40.3439 -118.0556 241° Southwest 486 559 37,700 -1,320 Descending FlightAware ADS-B (KAHC)
10:21PM 40.2915 -118.1821 241° Southwest 490 564 36,400 -2,160 Descending FlightAware ADS-B (KAHC)
10:21PM 40.2597 -118.2578 241° Southwest 495 570 35,000 -2,820 Descending FlightAware ADS-B (KAHC)
10:22PM 40.2269 -118.3361 241° Southwest 497 572 33,600 -2,820 Descending FlightAware ADS-B (KAHC)
10:22PM 40.1910 -118.4210 241° Southwest 497 572 32,100 -3,000 Descending FlightAware
10:24PM 40.0993 -118.6083 237° Southwest 503 579 28,300 -3,120 Descending FlightAware ADS-B (KAHC)
10:24PM 40.0203 -118.7068 224° Southwest 498 573 25,700 -3,000 Descending FlightAware ADS-B (KAHC)
10:25PM 39.9533 -118.7889 223° Southwest 491 565 23,900 -2,880 Descending FlightAware ADS-B (KAHC)
10:25PM 39.9023 -118.8512 223° Southwest 483 556 22,500 -2,760 Descending FlightAware ADS-B (KAHC)
10:26PM 39.8505 -118.9144 223° Southwest 474 545 21,100 -2,640 Descending FlightAware ADS-B (KAHC)
10:27PM 39.7840 -118.9960 223° Southwest 464 534 19,200 -2,640 Descending FlightAware
10:28PM 39.7009 -119.0963 223° Southwest 446 513 16,900 -2,400 Descending FlightAware ADS-B (KAHC)
10:28PM 39.6569 -119.1495 223° Southwest 428 493 15,900 -1,980 Descending FlightAware ADS-B (KAHC)
10:29PM 39.6113 -119.2044 223° Southwest 408 470 14,900 -1,800 Descending FlightAware ADS-B (KAHC)
10:29PM 39.5720 -119.2520 223° Southwest 391 450 14,100 -1,680 Descending FlightAware ADS-B (KAHC)
10:30PM 39.5301 -119.3024 223° Southwest 376 433 13,200 -1,440 Descending FlightAware ADS-B (KAHC)
10:31PM 39.4590 -119.3880 223° Southwest 347 399 12,000 -1,080 Descending FlightAware
10:31PM 39.4030 -119.4550 223° Southwest 338 389 11,300 -720 Descending FlightAware
10:32PM 39.3460 -119.5240 223° Southwest 330 380 10,900 -240 Descending FlightAware
10:33PM 39.2930 -119.5870 223° Southwest 305 351 10,900  Level FlightAware
10:34PM 39.2610 -119.6170 216° Southwest 307 353 10,900  Level FlightAware
10:34PM 39.2220 -119.6310 196° South 306 352 10,900 -180 Level FlightAware
10:34PM 39.1970 -119.6460 205° Southwest 298 343 10,800 -780 Descending FlightAware
10:35PM 39.1820 -119.6910 247° West 276 318 10,300 -1,020 Descending FlightAware
10:35PM 39.1880 -119.7380 279° West 262 302 9,800 -780 Descending FlightAware
10:36PM 39.2080 -119.7600 320° Northwest 242 278 9,600 -540 Descending FlightAware
10:36PM 39.2310 -119.7700 341° North 232 267 9,400 -240 Descending FlightAware
10:37PM 39.2700 -119.7690 North 218 251 9,400 -540 Level FlightAware
10:37PM 39.2910 -119.7690 360° North 212 244 8,900 -1,440 Descending FlightAware
10:37PM 39.3070 -119.7700 357° North 206 237 8,500 -1,440 Descending FlightAware
10:38PM 39.3190 -119.7700 360° North 194 223 8,200 -1,260 Descending FlightAware
10:38PM 39.3570 -119.7700 360° North 165 190 7,300 -1,080 Descending FlightAware
10:39PM 39.3810 -119.7700 360° North 156 180 6,800 -960 Descending FlightAware
10:39PM 39.3990 -119.7700 360° North 157 181 6,400 -1,080 Descending FlightAware
10:40PM 39.4180 -119.7700 360° North 150 173 5,900 -1,140 Descending FlightAware
10:40PM 39.4300 -119.7700 360° North 149 171 5,600 -1,020 Descending FlightAware
10:40PM 39.4430 -119.7690 North 150 173 5,300 -960 Descending FlightAware
10:41PM 39.4660 -119.7690 360° North 152 175 4,800 -960 Descending FlightAware
10:41PM 39.4750 -119.7690 360° North 153 176 4,600 -900 Descending FlightAware
10:42PM 39.4990 -119.7690 360° North 115 132 -7,500 Descending FlightAware